Aérodrome :
LOGIN :

S'inscrire | Disclaimer

   EN    FR    IT 

 










Légende :    VFR   VFR Marginal   IFR   IFR Intensif   IFR Très Intensif
Visi : 
Plafond : 
>= 8 km
>= 3000ft
5 à 8 km
1000 à 3000 ft
1500m à 5 km
500 à 1000 ft
800 à 1500m
200 à 500 ft
< 800m
< 200 ft
Symboles :   Orages  Brouillard  Fortes neiges  Fortes précipitations  Vent > 20 kt
SIGMETs :   Divers  Orages  Givrage  Turbulence  Onde Orograph.  Cendres Volcan.







- Altitude de l'aérodrome : 364 ft
- Code IATA : FRA


EDDF - Frankfurt Int.

DERNIER METAR :
  • 180050Z 18007KT 9999 FEW017 BKN024 BKN070 02/M00 Q1023 R88/2///95 NOSIG

METARs EXPIRÉS :
  • 180020Z 19006KT 9999 FEW017 BKN024 BKN080 02/M00 Q1023 R88/2///95 NOSIG
  • 172350Z 20008KT 9999 FEW017 BKN024 02/M00 Q1024 R88/2///95 NOSIG
  • 172320Z 21008KT 9999 BKN022 OVC046 02/M00 Q1024 R88/2///95 NOSIG
  • 172250Z 21009KT 9999 FEW022 OVC046 02/M00 Q1024 R88/2///95 NOSIG
  • 172220Z 20006KT 9999 FEW022 OVC046 02/M00 Q1025 R88/2///95 NOSIG

TAF TAF EDDF
Valide du 18 à 00h jusqu'au 19 à 06h UTC


172300Z 1800/1906 19007KT 9999 BKN025
BECMG 1801/1803 4000 -SN BKN013
TEMPO 1803/1809 2000 SN OVC008
PROB30
TEMPO 1803/1807 0500 +SN BKN002
BECMG 1809/1812 12005KT 7000 NSW SCT008 BKN015
TEMPO 1812/1821 3000 -SNRA BKN008
TEMPO 1821/1906 3000 BR BKN008
Pas de NOTAMs connus pour ce terrain.
2 SIGMETs publiés pour la FIR Langen (EDGG) :
 
Givrage fort
EDGG SIGMET 2 VALID 180000/180300 EDZF
EDGG LANGEN FIR SEV ICE FCST NW OF LINE N4915 E00730 - N5120 E00850 1000FT/FL130 MOV SE NC=
Orages noyés dans la masse
EDGG SIGMET 1 VALID 172335/180100 EDZF
EDGG LANGEN FIR EMBD TS OBS N OF N5130 AND W OF E00800 TOP FL200 MOV SE WKN=



MET'MAP, la Météo Aéronautique d'un coup d'oeil ! - Copyright ORBIFLY Décembre 2007 - Disclaimer

ORBIFLY MET'MAP TEAM :

Programmation & Développement : Alexandra Zaïnal
Conception & Développement : Baudouin d'Aumeries
Co-Programmation & Développement : Marc-Olivier Méhu
Soutien technique & logistique : Manuel Goepfert

Contact : metmap@orbifly.com




SOURCES & CREDITS :

   NOAA